createdAt,value
2022-11-04T00:10:05.261Z,12.63
2022-11-04T00:13:17.901Z,12.97
2022-11-04T00:16:34.201Z,12.55
2022-11-04T00:19:43.137Z,12.65
2022-11-04T00:26:09.162Z,12.69
2022-11-04T00:29:16.247Z,12.38
2022-11-04T00:32:29.002Z,12.81
2022-11-04T00:38:51.599Z,12.29
2022-11-04T00:41:58.947Z,12.53
2022-11-04T00:45:05.520Z,12.87
2022-11-04T00:51:28.712Z,12.78
2022-11-04T00:54:34.045Z,12.89
2022-11-04T00:57:41.475Z,12.88
2022-11-04T01:00:46.705Z,12.73
2022-11-04T01:03:52.501Z,12.57
2022-11-04T01:10:15.126Z,12.67
2022-11-04T01:16:44.829Z,12.31
2022-11-04T01:19:50.289Z,12.45
2022-11-04T01:22:54.540Z,12.63
2022-11-04T01:29:26.911Z,12.73
2022-11-04T01:32:30.908Z,12.39
2022-11-04T01:35:34.953Z,12.61
2022-11-04T02:12:52.014Z,12.78
2022-11-04T02:15:56.129Z,12.79
2022-11-04T02:19:00.292Z,12.91
2022-11-04T02:22:09.590Z,12.47
2022-11-04T02:25:13.529Z,12.44
2022-11-04T02:28:19.431Z,12.55
2022-11-04T02:31:23.545Z,12.76
2022-11-04T02:34:28.815Z,12.61
2022-11-04T02:37:33.192Z,12.46
2022-11-04T02:40:40.043Z,12.69
2022-11-04T02:43:44.581Z,12.93
2022-11-04T02:46:48.388Z,12.88
2022-11-04T02:49:52.260Z,12.61
2022-11-04T02:52:57.408Z,12.73
2022-11-04T02:56:05.500Z,12.99
2022-11-04T02:59:09.844Z,12.72
2022-11-04T03:02:15.271Z,12.41
2022-11-04T03:05:30.028Z,12.29
2022-11-04T03:08:34.404Z,12.36
2022-11-04T03:11:38.171Z,11.94
2022-11-04T03:14:43.357Z,11.86
2022-11-04T03:17:51.638Z,12.37
2022-11-04T03:20:58.511Z,12.19
2022-11-04T03:24:02.658Z,11.70
2022-11-04T03:27:06.685Z,12.08
2022-11-04T03:30:10.701Z,12.15
2022-11-04T03:33:14.625Z,12.34
2022-11-04T03:36:18.913Z,12.20
2022-11-04T03:39:23.990Z,12.18
2022-11-04T03:42:28.520Z,12.19
2022-11-04T03:45:32.529Z,12.02
2022-11-04T03:48:37.743Z,12.06
2022-11-04T03:51:42.961Z,11.80
2022-11-04T03:54:46.706Z,11.87
2022-11-04T03:57:51.540Z,11.81
2022-11-04T04:00:55.691Z,11.97
2022-11-04T04:03:59.669Z,12.22
2022-11-04T04:07:03.676Z,12.23
2022-11-04T04:10:07.536Z,12.41
2022-11-04T04:13:17.696Z,11.76
2022-11-04T04:16:26.216Z,11.88
2022-11-04T04:19:31.397Z,12.01
2022-11-04T04:22:35.377Z,12.12
2022-11-04T04:25:39.426Z,12.48
2022-11-04T04:28:44.868Z,12.15
2022-11-04T04:31:49.213Z,12.36
2022-11-04T04:34:52.922Z,12.40
2022-11-04T04:37:56.706Z,12.36
2022-11-04T04:41:03.716Z,11.77
2022-11-04T04:44:09.010Z,11.99
2022-11-04T04:47:12.892Z,12.15
2022-11-04T04:50:21.470Z,12.21
2022-11-04T04:53:25.841Z,11.98
2022-11-04T04:56:29.796Z,11.98
2022-11-04T04:59:33.690Z,12.15
2022-11-04T05:02:39.044Z,12.43
2022-11-04T05:05:44.587Z,12.31
2022-11-04T05:08:49.088Z,12.40
2022-11-04T05:11:53.280Z,12.52
2022-11-04T05:14:56.959Z,12.33
2022-11-04T05:18:02.291Z,12.24
2022-11-04T05:21:14.888Z,11.96
2022-11-04T05:24:18.955Z,12.21
2022-11-04T05:34:28.414Z,12.26
2022-11-04T05:37:49.293Z,12.42
2022-11-04T05:40:54.829Z,12.56
2022-11-04T05:43:59.255Z,12.46
2022-11-04T05:50:21.583Z,11.70
2022-11-04T05:54:19.124Z,11.74
2022-11-04T06:00:24.746Z,11.22
2022-11-04T06:03:36.943Z,11.52
2022-11-04T06:06:48.118Z,11.60
2022-11-04T06:09:52.218Z,11.71
2022-11-04T06:12:59.580Z,11.48
2022-11-04T06:16:12.580Z,11.79
2022-11-04T06:47:53.195Z,11.52
2022-11-04T06:51:23.283Z,11.89
2022-11-04T06:57:52.473Z,12.45
2022-11-04T07:00:59.190Z,12.59
2022-11-04T07:04:09.406Z,12.38
2022-11-04T07:07:16.237Z,12.14
2022-11-04T07:10:20.272Z,11.88
2022-11-04T07:16:43.992Z,12.09
2022-11-04T07:19:52.025Z,12.12
2022-11-04T07:23:06.600Z,12.08
2022-11-04T07:26:21.098Z,11.82
2022-11-04T07:29:26.687Z,12.08
2022-11-04T07:32:30.968Z,12.72
2022-11-04T07:35:36.157Z,12.60
2022-11-04T07:38:40.261Z,12.39
2022-11-04T07:41:48.764Z,12.90
2022-11-04T07:48:58.207Z,12.52
2022-11-04T07:51:36.030Z,12.29
2022-11-04T07:54:42.429Z,12.62
2022-11-04T07:57:46.371Z,12.56
2022-11-04T08:00:50.603Z,12.56
2022-11-04T08:03:55.312Z,12.59
2022-11-04T08:06:59.343Z,12.59
2022-11-04T08:10:07.613Z,12.94
2022-11-04T08:13:13.136Z,12.66
2022-11-04T08:16:33.040Z,12.59
2022-11-04T08:19:39.563Z,12.91
2022-11-04T08:23:06.480Z,12.74
2022-11-04T08:26:16.494Z,12.19
2022-11-04T08:36:00.373Z,12.30
2022-11-04T08:39:10.308Z,12.17
2022-11-04T08:42:15.323Z,12.87
2022-11-04T08:48:48.801Z,13.37
2022-11-04T08:51:55.237Z,13.29
2022-11-04T08:55:18.665Z,13.03
2022-11-04T08:58:41.748Z,12.84
2022-11-04T09:35:47.416Z,13.89
2022-11-04T10:05:50.279Z,13.92
2022-11-04T10:08:57.162Z,13.84
2022-11-04T10:12:02.923Z,13.98
2022-11-04T10:15:06.976Z,13.74
2022-11-04T10:18:11.080Z,14.07
2022-11-04T10:21:15.215Z,13.94
2022-11-04T10:24:20.204Z,13.69
2022-11-04T10:27:31.421Z,13.92
2022-11-04T10:30:36.470Z,13.48
2022-11-04T10:33:41.889Z,13.27
2022-11-04T10:37:08.574Z,13.27
2022-11-04T10:40:15.014Z,13.47
2022-11-04T10:43:22.276Z,13.59
2022-11-04T10:46:48.474Z,13.77
2022-11-04T10:50:21.846Z,13.84
2022-11-04T10:53:15.033Z,13.85
2022-11-04T10:56:41.354Z,14.02
2022-11-04T10:59:47.100Z,14.01
2022-11-04T11:02:51.676Z,14.00
2022-11-04T11:09:22.893Z,13.81
2022-11-04T11:40:17.538Z,13.42
2022-11-04T11:46:32.154Z,13.16
2022-11-04T11:53:12.015Z,13.32
2022-11-04T12:10:18.861Z,12.77
2022-11-04T12:44:10.220Z,12.10
2022-11-04T12:47:21.555Z,11.65
2022-11-04T13:00:50.169Z,11.83
2022-11-04T13:04:02.830Z,11.85
2022-11-04T13:17:29.119Z,11.71
2022-11-04T13:27:39.284Z,10.76
2022-11-04T13:30:43.209Z,10.86
2022-11-04T13:33:53.000Z,11.13
2022-11-04T13:40:25.159Z,11.22
2022-11-04T13:43:29.100Z,11.26
2022-11-04T13:46:37.378Z,11.15
2022-11-04T13:50:08.174Z,11.48
2022-11-04T14:00:00.791Z,11.49
2022-11-04T14:06:29.070Z,11.92
2022-11-04T14:09:44.595Z,11.75
2022-11-04T14:13:12.761Z,11.64
2022-11-04T14:16:22.855Z,11.79
2022-11-04T14:19:30.241Z,12.02
2022-11-04T14:22:40.620Z,11.75
2022-11-04T14:25:45.486Z,11.75
2022-11-04T14:35:40.956Z,12.30
2022-11-04T14:38:48.953Z,12.32
2022-11-04T14:42:08.554Z,12.20
2022-11-04T14:45:14.417Z,12.22
2022-11-04T14:48:22.637Z,12.36
2022-11-04T14:51:26.575Z,11.76
2022-11-04T14:57:59.774Z,11.72
2022-11-04T15:01:06.612Z,11.52
2022-11-04T15:04:20.530Z,11.89
2022-11-04T15:07:24.781Z,11.96
2022-11-04T15:10:35.766Z,11.60
2022-11-04T15:13:40.088Z,12.10
2022-11-04T15:16:48.209Z,12.02
2022-11-04T15:19:52.248Z,12.45
2022-11-04T15:22:56.826Z,12.43
2022-11-04T15:26:02.208Z,12.29
2022-11-04T15:29:14.262Z,12.30
2022-11-04T15:35:37.515Z,12.48
2022-11-04T15:38:41.602Z,12.13
2022-11-04T15:41:56.039Z,12.13
2022-11-04T15:45:01.721Z,12.18
2022-11-04T15:48:08.643Z,11.46
2022-11-04T15:51:18.612Z,11.77
2022-11-04T15:54:24.456Z,11.79
2022-11-04T15:57:33.594Z,11.82
2022-11-04T16:00:40.102Z,11.83
2022-11-04T16:03:45.841Z,11.88
2022-11-04T16:06:53.205Z,11.42
2022-11-04T16:09:59.254Z,11.43
2022-11-04T16:13:03.243Z,11.62
2022-11-04T16:16:07.228Z,11.76
2022-11-04T16:19:18.779Z,11.58
2022-11-04T16:29:25.139Z,11.21
2022-11-04T16:32:29.956Z,11.10
2022-11-04T16:35:34.121Z,11.49
2022-11-04T16:38:38.317Z,11.48
2022-11-04T16:41:42.414Z,11.30
2022-11-04T16:44:47.426Z,11.66
2022-11-04T16:47:51.686Z,11.78
2022-11-04T16:50:55.457Z,11.51
2022-11-04T16:53:59.804Z,11.80
2022-11-04T16:57:04.206Z,11.92
2022-11-04T17:00:08.539Z,11.62
2022-11-04T17:03:12.613Z,11.79
2022-11-04T17:06:18.394Z,11.69
2022-11-04T17:09:25.632Z,11.70
2022-11-04T17:12:29.752Z,11.51
2022-11-04T17:15:36.285Z,11.68
2022-11-04T17:18:42.261Z,11.33
2022-11-04T17:21:46.391Z,11.70
2022-11-04T17:24:51.278Z,11.87
2022-11-04T17:27:55.330Z,11.91
2022-11-04T17:30:59.629Z,11.82
2022-11-04T17:34:05.010Z,11.88
2022-11-04T17:53:08.925Z,11.62
2022-11-04T18:03:07.196Z,11.44
2022-11-04T18:14:00.901Z,11.55
2022-11-04T18:34:03.123Z,10.82
2022-11-04T18:37:10.647Z,10.80
2022-11-04T18:40:21.336Z,11.01
2022-11-04T18:43:25.326Z,10.28
2022-11-04T18:46:30.583Z,10.33
2022-11-04T18:59:52.056Z,10.95
2022-11-04T19:02:56.260Z,10.80
2022-11-04T19:06:00.615Z,11.09
2022-11-04T19:09:13.272Z,11.42
2022-11-04T19:12:21.788Z,11.39
2022-11-04T19:18:49.207Z,10.95
2022-11-04T19:21:53.088Z,11.39
2022-11-04T19:28:33.165Z,11.06
2022-11-04T19:31:34.683Z,10.80
2022-11-04T19:34:39.062Z,11.05
2022-11-04T19:37:42.944Z,10.81
2022-11-04T19:40:51.843Z,10.98
2022-11-04T19:43:57.093Z,11.21
2022-11-04T19:47:00.761Z,11.08
2022-11-04T19:50:06.064Z,11.27
2022-11-04T19:53:10.665Z,11.03
2022-11-04T19:56:14.992Z,11.37
2022-11-04T19:59:19.279Z,11.64
2022-11-04T20:02:23.308Z,11.66
2022-11-04T20:05:27.902Z,11.30
2022-11-04T20:08:31.913Z,11.02
2022-11-04T20:11:36.315Z,11.39
2022-11-04T20:14:41.493Z,11.04
2022-11-04T20:17:48.649Z,11.33
2022-11-04T20:20:52.990Z,11.53
2022-11-04T20:24:03.624Z,11.78
2022-11-04T20:34:12.567Z,11.47
